Time;durP1;ratioP1;P1;durP2;ratioP2;P2;SDS_P1;SDS_P2;PMS_P1;PMS_P2;Temp;Humidity;BMP_temperature;BMP_pressure;BME280_temperature;BME280_humidity;BME280_pressure;Samples;Min_cycle;Max_cycle;Signal;HPM_P1;HPM_P2
2022/06/18 00:00:24;;;;;;;1.25;1.25;;;;;;;21.59;55.18;101693.53;5092595;28;20024;-78
2022/06/18 00:02:49;;;;;;;1.10;1.10;;;;;;;21.56;56.67;101691.81;5092037;28;20040;-78
2022/06/18 00:05:17;;;;;;;0.97;0.97;;;;;;;21.51;55.69;101690.34;5092192;28;20039;-78
2022/06/18 00:07:46;;;;;;;1.00;1.00;;;;;;;21.48;55.86;101690.50;5092864;28;20095;-78
2022/06/18 00:10:16;;;;;;;1.50;1.40;;;;;;;21.42;57.75;101691.66;5092865;28;20020;-78
2022/06/18 00:15:31;;;;;;;1.30;1.20;;;;;;;21.32;57.55;101685.09;5092657;28;20046;-78
2022/06/18 00:17:57;;;;;;;0.82;0.82;;;;;;;21.26;58.20;101675.69;5092714;28;20034;-78
2022/06/18 00:20:25;;;;;;;0.90;0.90;;;;;;;21.23;57.05;101675.81;5092676;28;20028;-78
2022/06/18 00:22:54;;;;;;;0.85;0.85;;;;;;;21.18;57.26;101675.19;5092484;28;20101;-78
2022/06/18 00:25:45;;;;;;;1.20;1.20;;;;;;;21.12;60.00;101677.19;5094238;28;20042;-77
2022/06/18 00:28:19;;;;;;;1.63;1.50;;;;;;;21.10;57.11;101676.41;5095780;28;20039;-78
2022/06/18 00:30:45;;;;;;;1.23;1.20;;;;;;;21.09;57.69;101676.47;5096697;28;20028;-77
2022/06/18 00:33:11;;;;;;;1.02;1.02;;;;;;;21.06;58.74;101679.25;5096435;28;20024;-78
2022/06/18 00:35:37;;;;;;;0.77;0.77;;;;;;;21.01;57.37;101674.19;5096421;28;20030;-78
2022/06/18 00:38:05;;;;;;;1.73;1.00;;;;;;;20.98;57.35;101672.56;5096587;28;20398;-78
2022/06/18 00:40:35;;;;;;;1.10;1.10;;;;;;;20.99;58.48;101673.41;5097172;28;20059;-78
2022/06/18 00:43:23;;;;;;;0.98;0.98;;;;;;;20.93;58.71;101671.91;5096602;28;20048;-78
2022/06/18 00:45:53;;;;;;;1.35;1.25;;;;;;;20.90;59.09;101673.84;5095302;28;20361;-77
2022/06/18 00:48:37;;;;;;;1.25;1.15;;;;;;;20.85;59.31;101679.31;5096159;28;20034;-78
2022/06/18 00:51:14;;;;;;;1.33;1.25;;;;;;;20.79;58.42;101676.94;5096664;28;20039;-78
2022/06/18 00:53:46;;;;;;;1.08;1.02;;;;;;;20.74;58.59;101674.53;5096331;28;20047;-77
2022/06/18 00:56:24;;;;;;;1.70;1.40;;;;;;;20.71;58.69;101679.03;5096970;28;20024;-78
2022/06/18 00:58:56;;;;;;;1.40;1.40;;;;;;;20.70;58.03;101678.22;5095203;28;20122;-77
2022/06/18 01:01:29;;;;;;;1.50;1.40;;;;;;;20.64;58.89;101675.81;5095866;28;20052;-78
2022/06/18 01:03:55;;;;;;;1.17;1.17;;;;;;;20.60;58.82;101676.91;5096516;28;20043;-78
2022/06/18 01:06:28;;;;;;;1.55;1.45;;;;;;;20.55;58.16;101678.88;5096318;28;20530;-78
2022/06/18 01:09:00;;;;;;;1.10;1.10;;;;;;;20.50;59.83;101676.44;5095201;28;20066;-77
2022/06/18 01:11:28;;;;;;;1.35;1.20;;;;;;;20.44;59.11;101671.41;5096191;28;20020;-78
2022/06/18 01:13:54;;;;;;;1.50;1.50;;;;;;;20.40;60.83;101670.69;5095353;28;20055;-78
2022/06/18 01:16:21;;;;;;;1.90;1.80;;;;;;;20.36;60.54;101671.78;5095511;28;20085;-78
2022/06/18 01:18:49;;;;;;;1.70;1.60;;;;;;;20.32;61.79;101662.28;5095572;28;20509;-78
2022/06/18 01:21:35;;;;;;;1.67;1.58;;;;;;;20.30;61.73;101656.22;5096084;28;20524;-78
2022/06/18 01:24:18;;;;;;;1.48;1.45;;;;;;;20.26;59.84;101662.56;5094702;28;20024;-78
2022/06/18 01:26:46;;;;;;;1.60;1.50;;;;;;;20.24;59.78;101661.75;5094843;28;20357;-77
2022/06/18 01:29:14;;;;;;;2.08;1.40;;;;;;;20.20;59.61;101653.16;5095956;28;20055;-77
2022/06/18 01:31:40;;;;;;;1.45;1.35;;;;;;;20.15;59.66;101653.31;5095093;28;20035;-77
2022/06/18 01:34:08;;;;;;;1.40;1.40;;;;;;;20.10;60.12;101655.31;5096101;28;20376;-77
2022/06/18 01:36:36;;;;;;;1.40;1.40;;;;;;;20.00;60.32;101646.91;5095510;28;20020;-77
2022/06/18 01:39:09;;;;;;;1.60;1.50;;;;;;;19.95;61.81;101651.53;5095818;28;20070;-77
2022/06/18 01:41:50;;;;;;;1.20;1.20;;;;;;;19.86;62.46;101650.16;5095724;28;20028;-77
2022/06/18 01:44:38;;;;;;;1.10;1.10;;;;;;;19.82;60.77;101659.06;5094955;28;20065;-78
2022/06/18 01:47:24;;;;;;;1.50;1.40;;;;;;;19.80;62.07;101657.41;5095405;28;20035;-77
2022/06/18 01:50:06;;;;;;;1.40;1.40;;;;;;;19.73;63.00;101665.56;5095387;28;20039;-77
2022/06/18 01:52:45;;;;;;;1.50;1.42;;;;;;;19.70;62.03;101659.59;5094005;28;20537;-77
2022/06/18 01:55:21;;;;;;;1.60;1.50;;;;;;;19.68;62.70;101654.34;5095116;28;20089;-77
2022/06/18 01:57:51;;;;;;;1.58;1.50;;;;;;;19.67;62.20;101655.28;5094676;28;20396;-77
2022/06/18 02:00:24;;;;;;;1.50;1.40;;;;;;;19.62;62.32;101649.34;5095800;28;20024;-77
2022/06/18 02:02:51;;;;;;;1.35;1.35;;;;;;;19.57;62.69;101649.53;5094884;28;20055;-78
2022/06/18 02:05:17;;;;;;;1.42;1.42;;;;;;;19.51;62.53;101639.25;5094701;28;20044;-77
2022/06/18 02:07:45;;;;;;;1.50;1.40;;;;;;;19.50;63.85;101641.94;5094517;28;20020;-78
2022/06/18 02:10:18;;;;;;;1.52;1.42;;;;;;;19.47;64.01;101642.06;5095258;28;20020;-77
2022/06/18 02:12:44;;;;;;;1.45;1.35;;;;;;;19.45;64.89;101653.50;5094326;28;20027;-77
2022/06/18 02:15:19;;;;;;;1.55;1.50;;;;;;;19.42;64.90;101639.63;5094763;28;20028;-77
2022/06/18 02:17:45;;;;;;;1.85;1.75;;;;;;;19.42;63.13;101640.47;5094262;28;20371;-77
2022/06/18 02:20:23;;;;;;;1.57;1.50;;;;;;;19.42;62.04;101639.63;5094684;28;20077;-78
2022/06/18 02:22:51;;;;;;;1.80;1.70;;;;;;;19.41;63.94;101643.16;5094832;28;20031;-78
2022/06/18 02:25:19;;;;;;;1.70;1.60;;;;;;;19.38;62.51;101640.66;5094876;28;20027;-78
2022/06/18 02:27:45;;;;;;;1.75;1.65;;;;;;;19.36;62.77;101638.09;5094139;28;20058;-77
2022/06/18 02:30:20;;;;;;;1.92;1.80;;;;;;;19.36;63.53;101639.88;5094684;28;20077;-78
2022/06/18 02:33:01;;;;;;;1.70;1.60;;;;;;;19.31;64.40;101631.28;5093888;28;20027;-77
2022/06/18 02:35:29;;;;;;;1.60;1.50;;;;;;;19.25;64.29;101632.38;5094372;28;20051;-77
2022/06/18 02:37:56;;;;;;;1.40;1.40;;;;;;;19.22;64.25;101635.13;5094222;28;20043;-77
2022/06/18 02:40:25;;;;;;;1.77;1.67;;;;;;;19.18;64.39;101634.41;5093949;28;20024;-77
2022/06/18 02:42:54;;;;;;;1.40;1.40;;;;;;;19.17;63.65;101632.69;5093782;28;20032;-77
2022/06/18 02:45:21;;;;;;;1.88;1.60;;;;;;;19.15;64.35;101631.88;5094302;28;20028;-77
2022/06/18 02:47:48;;;;;;;1.27;1.27;;;;;;;19.16;65.46;101632.75;5092860;28;20095;-77
2022/06/18 02:50:14;;;;;;;;;;;;;;;19.13;64.81;101631.94;5094275;28;20093;-77
2022/06/18 02:52:48;;;;;;;1.73;1.63;;;;;;;19.10;65.55;101631.22;5093998;28;19951;-77
2022/06/18 02:55:31;;;;;;;2.10;1.80;;;;;;;19.11;65.80;101630.31;5093674;28;20032;-77
2022/06/18 02:58:05;;;;;;;1.80;1.70;;;;;;;19.11;65.00;101630.31;5092437;28;20036;-77
2022/06/18 03:00:36;;;;;;;1.80;1.70;;;;;;;19.13;64.80;101631.94;5094063;28;20035;-77
2022/06/18 03:03:02;;;;;;;1.70;1.60;;;;;;;19.15;64.22;101624.00;5093371;28;20044;-77
2022/06/18 03:05:28;;;;;;;;;;;;;;;19.14;64.60;101625.78;5094348;28;20035;-77
2022/06/18 03:07:54;;;;;;;1.60;1.50;;;;;;;19.14;64.04;101628.41;5093345;28;19927;-77
2022/06/18 03:13:04;;;;;;;2.00;1.90;;;;;;;19.12;66.81;101635.50;5094625;28;20039;-77
2022/06/18 03:15:30;;;;;;;2.50;2.30;;;;;;;19.09;64.60;101637.41;5093233;28;20024;-77
2022/06/18 03:17:57;;;;;;;2.42;2.22;;;;;;;19.10;64.42;101636.47;5092718;28;20036;-77
2022/06/18 03:20:25;;;;;;;;;;;;;;;19.08;63.93;101649.69;5094413;28;20027;-77
2022/06/18 03:22:50;;;;;;;2.05;1.90;;;;;;;19.06;64.28;101638.38;5092698;28;20006;-78
2022/06/18 03:25:16;;;;;;;1.83;1.73;;;;;;;19.03;63.79;101645.53;5093678;28;20055;-77
2022/06/18 03:27:41;;;;;;;1.80;1.70;;;;;;;19.01;65.30;101645.56;5093546;28;20032;-77
2022/06/18 03:30:07;;;;;;;1.80;1.70;;;;;;;18.99;64.15;101644.78;5093240;28;20116;-78
2022/06/18 03:32:33;;;;;;;2.00;1.90;;;;;;;18.96;64.45;101640.50;5093173;28;20067;-77
2022/06/18 03:34:58;;;;;;;1.80;1.70;;;;;;;18.93;64.60;101648.50;5092685;28;20442;-77
2022/06/18 03:37:23;;;;;;;1.70;1.60;;;;;;;18.91;64.90;101647.69;5092918;28;20361;-77
2022/06/18 03:39:50;;;;;;;1.73;1.63;;;;;;;18.85;65.07;101650.53;5092817;28;20040;-77
2022/06/18 03:42:15;;;;;;;1.60;1.50;;;;;;;18.83;64.91;101652.34;5093726;28;20137;-77
2022/06/18 03:44:40;;;;;;;1.33;1.33;;;;;;;18.80;65.10;101649.84;5092158;28;20430;-77
2022/06/18 03:47:06;;;;;;;2.43;1.40;;;;;;;18.79;66.22;101645.50;5092900;28;20077;-77
2022/06/18 03:49:32;;;;;;;1.33;1.23;;;;;;;18.80;65.18;101652.47;5093340;28;20048;-77
2022/06/18 03:52:00;;;;;;;1.48;1.38;;;;;;;18.80;65.85;101653.31;5092662;28;20052;-77
2022/06/18 03:54:25;;;;;;;2.30;2.10;;;;;;;18.80;67.04;101655.97;5093370;28;20028;-77
2022/06/18 03:56:55;;;;;;;2.17;2.00;;;;;;;18.83;65.90;101653.22;5093777;28;20028;-77
2022/06/18 03:59:21;;;;;;;1.80;1.70;;;;;;;18.86;65.36;101654.03;5092853;28;20027;-77
2022/06/18 04:01:47;;;;;;;1.73;1.63;;;;;;;18.86;65.52;101646.97;5092270;28;20073;-77
2022/06/18 04:04:13;;;;;;;1.70;1.60;;;;;;;18.89;65.10;101643.38;5092835;28;20036;-77
2022/06/18 04:06:39;;;;;;;1.63;1.52;;;;;;;18.91;65.45;101644.19;5093165;28;20035;-77
2022/06/18 04:09:05;;;;;;;;;;;;;;;18.91;65.60;101639.78;5093091;28;20464;-77
2022/06/18 04:11:31;;;;;;;1.40;1.38;;;;;;;18.92;65.45;101638.84;5091876;28;19916;-78
2022/06/18 04:13:57;;;;;;;1.60;1.50;;;;;;;18.93;65.46;101637.09;5091888;28;20040;-77
2022/06/18 04:16:23;;;;;;;2.80;1.83;;;;;;;18.94;68.25;101636.22;5093074;28;20032;-77
2022/06/18 04:18:48;;;;;;;1.90;1.80;;;;;;;18.95;68.04;101628.25;5091992;28;20510;-77
2022/06/18 04:21:14;;;;;;;1.80;1.70;;;;;;;18.96;65.85;101627.34;5092768;28;20024;-77
2022/06/18 04:23:40;;;;;;;1.90;1.80;;;;;;;19.01;65.85;101626.31;5092883;28;20069;-77
2022/06/18 04:26:06;;;;;;;1.70;1.60;;;;;;;19.03;65.72;101621.88;5092492;28;20493;-77
2022/06/18 04:28:31;;;;;;;1.63;1.52;;;;;;;19.06;65.73;101624.34;5092775;28;20049;-77
2022/06/18 04:30:56;;;;;;;1.73;1.63;;;;;;;19.09;65.73;101624.25;5092512;28;20138;-77
2022/06/18 04:33:22;;;;;;;1.70;1.60;;;;;;;19.13;66.81;101628.47;5092266;28;20020;-77
2022/06/18 04:35:55;;;;;;;1.70;1.60;;;;;;;19.16;67.34;101632.75;5092257;28;20066;-77
2022/06/18 04:38:21;;;;;;;1.90;1.80;;;;;;;19.18;67.08;101631.78;5092158;28;20032;-77
2022/06/18 04:40:49;;;;;;;1.92;1.80;;;;;;;19.22;66.36;101632.50;5091768;28;20472;-77
2022/06/18 04:43:15;;;;;;;3.92;2.42;;;;;;;19.25;68.01;101630.59;5093003;28;20028;-77
2022/06/18 04:45:41;;;;;;;2.25;2.13;;;;;;;19.28;68.95;101627.84;5092514;28;20495;-78
2022/06/18 04:48:06;;;;;;;2.60;2.40;;;;;;;19.33;69.41;101635.56;5091972;28;20024;-77
2022/06/18 04:50:35;;;;;;;2.42;2.22;;;;;;;19.37;67.23;101634.53;5092866;28;20020;-77
2022/06/18 04:53:00;;;;;;;2.40;2.20;;;;;;;19.46;68.61;101638.59;5092363;28;20464;-77
2022/06/18 04:55:26;;;;;;;2.20;2.03;;;;;;;19.51;66.57;101633.13;5092607;28;20031;-77
2022/06/18 04:57:51;;;;;;;2.50;2.30;;;;;;;19.56;68.45;101631.16;5092180;28;20031;-77
2022/06/18 05:00:18;;;;;;;2.23;2.00;;;;;;;19.63;67.67;101631.75;5092441;28;20286;-77
2022/06/18 05:02:47;;;;;;;1.80;1.70;;;;;;;19.69;67.02;101642.06;5091664;28;20066;-77
2022/06/18 05:05:16;;;;;;;2.92;2.10;;;;;;;19.77;68.21;101639.97;5091940;28;20028;-77
2022/06/18 05:07:41;;;;;;;2.40;2.20;;;;;;;19.83;67.55;101628.31;5091807;28;20028;-77
2022/06/18 05:10:07;;;;;;;2.37;2.17;;;;;;;19.87;67.40;101635.22;5091925;28;20495;-77
2022/06/18 05:12:32;;;;;;;2.40;2.20;;;;;;;19.95;68.00;101634.88;5095838;28;20032;-77
2022/06/18 05:14:58;;;;;;;2.10;2.00;;;;;;;20.00;67.24;101640.81;5095309;28;20028;-77
2022/06/18 05:17:29;;;;;;;2.00;1.90;;;;;;;20.10;68.27;101641.28;5095751;28;20020;-77
2022/06/18 05:19:54;;;;;;;2.50;2.30;;;;;;;20.15;67.72;101639.28;5096177;28;20411;-78
2022/06/18 05:22:19;;;;;;;2.37;2.17;;;;;;;20.23;68.22;101647.72;5094312;28;20027;-78
2022/06/18 05:24:45;;;;;;;2.10;2.00;;;;;;;20.30;66.67;101653.56;5094773;28;20099;-78
2022/06/18 05:27:26;;;;;;;2.33;2.13;;;;;;;20.40;66.46;101657.53;5095081;28;20502;-76
2022/06/18 05:29:51;;;;;;;2.78;2.45;;;;;;;20.45;66.63;101660.84;5096345;28;20028;-77
2022/06/18 05:32:19;;;;;;;3.28;2.30;;;;;;;20.51;66.99;101652.63;5091104;28;20519;-78
2022/06/18 05:34:45;;;;;;;2.60;2.13;;;;;;;20.60;66.18;101661.09;5094140;28;20032;-77
2022/06/18 05:37:15;;;;;;;1.97;1.87;;;;;;;20.68;66.59;101653.69;5095731;28;20356;-77
2022/06/18 05:39:40;;;;;;;1.90;1.80;;;;;;;20.78;64.62;101662.03;5095323;28;20371;-77
2022/06/18 05:42:06;;;;;;;2.20;2.07;;;;;;;20.86;65.67;101659.94;5095765;28;20107;-77
2022/06/18 05:44:31;;;;;;;2.27;2.07;;;;;;;20.93;65.33;101664.00;5095319;28;20107;-77
2022/06/18 05:46:56;;;;;;;2.53;1.90;;;;;;;21.01;65.55;101668.91;5087282;28;20024;-77
2022/06/18 05:49:21;;;;;;;1.80;1.70;;;;;;;21.10;65.05;101665.84;5075917;28;20031;-77
2022/06/18 05:51:47;;;;;;;2.30;2.07;;;;;;;21.20;65.83;101661.00;5074432;28;20522;-77
2022/06/18 05:54:12;;;;;;;2.00;1.90;;;;;;;21.29;64.82;101662.31;5074920;28;20020;-77
2022/06/18 05:56:37;;;;;;;1.63;1.53;;;;;;;21.37;65.03;101654.91;5073914;28;20029;-77
2022/06/18 05:59:02;;;;;;;1.80;1.70;;;;;;;21.45;64.41;101660.69;5076610;28;20516;-77
2022/06/18 06:01:28;;;;;;;1.67;1.57;;;;;;;21.58;64.37;101665.38;5093945;28;20085;-77
2022/06/18 06:03:53;;;;;;;2.00;1.90;;;;;;;21.77;64.77;101664.47;5094460;28;20094;-77
2022/06/18 06:06:18;;;;;;;1.80;1.70;;;;;;;22.05;63.57;101662.19;5095061;28;20062;-77
2022/06/18 06:08:44;;;;;;;1.30;1.30;;;;;;;22.75;64.10;101658.59;5095224;28;20062;-77
2022/06/18 06:13:53;;;;;;;2.00;1.90;;;;;;;24.21;61.05;101645.94;5095321;28;20388;-77
2022/06/18 06:16:20;;;;;;;1.40;1.30;;;;;;;24.57;60.05;101653.53;5095241;28;20032;-77
2022/06/18 06:18:46;;;;;;;2.92;1.88;;;;;;;24.63;55.33;101646.03;5094233;28;20043;-77
2022/06/18 06:21:11;;;;;;;4.03;2.50;;;;;;;24.47;58.60;101640.00;5095085;28;20468;-77
2022/06/18 06:23:36;;;;;;;2.20;2.00;;;;;;;24.42;58.87;101652.69;5093703;28;20593;-77
2022/06/18 06:26:03;;;;;;;1.97;1.87;;;;;;;24.46;58.39;101644.44;5093559;28;20041;-77
2022/06/18 06:28:30;;;;;;;1.90;1.80;;;;;;;24.57;57.73;101648.22;5094102;28;20028;-77
2022/06/18 06:30:56;;;;;;;1.90;1.80;;;;;;;24.69;58.25;101641.34;5094883;28;20020;-77
2022/06/18 06:33:21;;;;;;;2.60;2.20;;;;;;;24.79;57.31;101643.31;5094099;28;20024;-78
2022/06/18 06:35:47;;;;;;;2.30;2.10;;;;;;;24.82;57.22;101642.28;5093962;28;20480;-79
2022/06/18 06:38:16;;;;;;;2.83;2.28;;;;;;;24.89;56.69;101642.72;5095176;28;20111;-80
2022/06/18 06:40:43;;;;;;;2.10;2.00;;;;;;;24.94;56.90;101649.44;5093679;28;20020;-79
2022/06/18 06:43:13;;;;;;;1.92;1.83;;;;;;;25.00;57.05;101648.19;5094601;28;20031;-79
2022/06/18 06:45:39;;;;;;;1.90;1.80;;;;;;;25.06;56.23;101647.81;5094140;28;20028;-79
2022/06/18 06:48:04;;;;;;;1.87;1.77;;;;;;;25.18;56.72;101642.66;5093908;28;20361;-79
2022/06/18 06:50:31;;;;;;;2.53;2.13;;;;;;;25.29;54.45;101635.69;5093597;28;20526;-79
2022/06/18 06:52:56;;;;;;;;;;;;;;;25.31;56.00;101638.28;5092576;28;20032;-79
2022/06/18 06:58:16;;;;;;;2.55;2.30;;;;;;;25.55;55.55;101641.13;5092950;28;20307;-78
2022/06/18 07:00:48;;;;;;;2.22;2.03;;;;;;;25.69;55.76;101642.03;5092327;28;20048;-79
2022/06/18 07:03:16;;;;;;;2.20;2.00;;;;;;;25.80;54.67;101644.81;5093518;28;20040;-79
2022/06/18 07:05:43;;;;;;;2.33;2.13;;;;;;;25.83;54.96;101647.28;5090722;28;21754;-79
2022/06/18 07:08:12;;;;;;;3.65;2.60;;;;;;;25.83;54.89;101649.94;5073227;28;20456;-79
2022/06/18 07:10:37;;;;;;;2.50;2.30;;;;;;;25.91;54.73;101654.72;5073067;28;20028;-79
2022/06/18 07:13:04;;;;;;;2.30;2.10;;;;;;;26.01;54.36;101647.81;5077409;28;20038;-79
2022/06/18 07:15:32;;;;;;;2.45;2.25;;;;;;;26.04;54.02;101647.59;5092438;28;20020;-79
2022/06/18 07:17:58;;;;;;;2.40;2.20;;;;;;;26.10;54.48;101653.50;5093359;28;20029;-79
2022/06/18 07:20:24;;;;;;;2.45;2.25;;;;;;;26.17;54.32;101662.75;5092797;28;20103;-79
2022/06/18 07:22:49;;;;;;;3.50;2.35;;;;;;;26.22;54.10;101655.31;5091910;28;20111;-79
2022/06/18 07:25:15;;;;;;;2.53;2.33;;;;;;;26.30;52.83;101652.97;5092766;28;20035;-79
2022/06/18 07:27:41;;;;;;;4.20;3.13;;;;;;;26.30;53.36;101646.78;5092489;28;20035;-78
2022/06/18 07:30:08;;;;;;;3.10;2.80;;;;;;;26.31;54.20;101657.34;5092758;28;20032;-79
2022/06/18 07:32:43;;;;;;;4.38;2.83;;;;;;;26.42;54.27;101650.41;5091686;28;20028;-79
2022/06/18 07:35:15;;;;;;;2.88;2.50;;;;;;;26.49;53.35;101649.88;5092242;28;20028;-79
2022/06/18 07:37:40;;;;;;;3.15;2.67;;;;;;;26.54;53.66;101648.69;5092693;28;20024;-80
2022/06/18 07:40:06;;;;;;;2.40;2.20;;;;;;;26.61;53.20;101649.97;5092891;28;20380;-79
2022/06/18 07:42:32;;;;;;;2.60;2.40;;;;;;;26.72;53.40;101643.88;5092155;28;20527;-79
2022/06/18 07:44:57;;;;;;;2.33;2.10;;;;;;;26.83;53.38;101649.31;5092440;28;20039;-79
2022/06/18 07:47:25;;;;;;;2.53;2.33;;;;;;;26.95;53.02;101644.91;5092076;28;20373;-80
2022/06/18 07:49:50;;;;;;;3.00;2.38;;;;;;;27.04;52.97;101638.91;5092197;28;20024;-80
2022/06/18 07:52:18;;;;;;;2.57;2.37;;;;;;;27.12;52.80;101633.03;5092361;28;20495;-79
2022/06/18 07:54:43;;;;;;;2.70;2.40;;;;;;;27.20;53.32;101640.44;5092264;28;20048;-79
2022/06/18 07:57:09;;;;;;;5.00;2.90;;;;;;;27.20;52.65;101633.31;5091911;28;20468;-78
2022/06/18 07:59:38;;;;;;;3.53;2.88;;;;;;;27.25;52.68;101631.16;5092267;28;20036;-78
2022/06/18 08:02:04;;;;;;;4.25;2.47;;;;;;;27.33;52.58;101633.25;5092389;28;20533;-78
2022/06/18 08:04:29;;;;;;;2.50;2.30;;;;;;;27.40;52.11;101631.84;5091909;28;20035;-79
2022/06/18 08:06:54;;;;;;;2.50;2.30;;;;;;;27.44;52.39;101624.50;5091754;28;20032;-79
2022/06/18 08:09:20;;;;;;;2.35;2.15;;;;;;;27.51;52.26;101617.72;5092592;28;20035;-79
2022/06/18 08:11:45;;;;;;;3.03;2.33;;;;;;;27.59;51.80;101623.31;5091424;28;20024;-80
2022/06/18 08:14:12;;;;;;;2.10;2.00;;;;;;;27.61;52.18;101615.22;5091323;28;20032;-80
2022/06/18 08:16:37;;;;;;;2.20;2.00;;;;;;;27.68;51.94;101616.44;5092463;28;20369;-77
2022/06/18 08:19:02;;;;;;;2.00;1.90;;;;;;;27.74;52.09;101620.47;5091082;28;20028;-77
2022/06/18 08:21:50;;;;;;;2.50;2.30;;;;;;;27.81;51.04;101607.50;5080046;28;20016;-76
2022/06/18 08:24:21;;;;;;;3.70;2.60;;;;;;;27.83;51.60;101611.75;5089605;28;20106;-77
2022/06/18 08:26:48;;;;;;;2.65;2.20;;;;;;;27.88;51.36;101606.94;5090787;28;20035;-77
2022/06/18 08:29:19;;;;;;;2.30;2.10;;;;;;;27.97;51.85;101605.38;5092377;28;20020;-77
2022/06/18 08:31:45;;;;;;;2.63;2.30;;;;;;;28.00;51.15;101601.59;5092517;28;20026;-77
2022/06/18 08:34:10;;;;;;;;;;;;;;;28.01;50.56;101595.31;5093533;28;20038;-77
2022/06/18 08:36:37;;;;;;;2.70;2.20;;;;;;;28.09;51.55;101600.09;5091953;28;19916;-77
2022/06/18 08:39:03;;;;;;;2.33;2.17;;;;;;;28.21;51.21;101599.09;5092456;28;20433;-77
2022/06/18 08:41:39;;;;;;;3.58;2.72;;;;;;;28.27;50.99;101603.09;5092771;28;20032;-77
2022/06/18 08:44:20;;;;;;;2.42;2.22;;;;;;;28.35;50.78;101604.19;5092783;28;20468;-77
2022/06/18 08:47:04;;;;;;;2.40;2.20;;;;;;;28.47;50.94;101607.72;5094485;28;20024;-77
2022/06/18 08:49:41;;;;;;;2.28;2.08;;;;;;;28.59;50.96;101607.72;5096709;28;20043;-77
2022/06/18 08:52:14;;;;;;;2.00;1.90;;;;;;;28.68;50.40;101609.63;5096534;28;20471;-77
2022/06/18 08:54:43;;;;;;;2.38;2.17;;;;;;;28.72;50.27;101600.41;5095353;28;20028;-77
2022/06/18 08:57:28;;;;;;;2.20;2.00;;;;;;;28.75;50.10;101605.53;5096337;28;20032;-78
2022/06/18 09:00:07;;;;;;;2.00;1.90;;;;;;;28.85;50.66;101607.44;5094840;28;20046;-77
2022/06/18 09:02:46;;;;;;;1.80;1.70;;;;;;;28.90;49.65;101614.09;5095892;28;20081;-78
2022/06/18 09:05:49;;;;;;;1.83;1.73;;;;;;;28.94;46.71;101617.38;5096293;28;20120;-77
2022/06/18 09:08:50;;;;;;;3.42;2.40;;;;;;;28.88;46.20;101610.69;5096244;28;20027;-77
2022/06/18 09:11:43;;;;;;;11.40;4.35;;;;;;;28.70;47.54;101625.53;5092483;28;20096;-77
2022/06/18 09:14:16;;;;;;;4.60;3.13;;;;;;;28.73;48.61;101615.47;5095918;28;20464;-77
2022/06/18 09:16:57;;;;;;;3.83;3.08;;;;;;;28.85;48.24;101619.00;5095910;28;20388;-77
2022/06/18 09:19:26;;;;;;;5.13;3.10;;;;;;;28.99;45.63;101617.03;5099758;28;20026;-77
2022/06/18 09:21:58;;;;;;;5.80;3.10;;;;;;;28.93;45.65;101613.84;5115968;28;20383;-77
2022/06/18 09:24:36;;;;;;;6.53;3.75;;;;;;;28.86;45.31;101619.81;5116486;28;20043;-77
2022/06/18 09:27:12;;;;;;;6.18;3.42;;;;;;;28.82;48.22;101611.22;5116590;28;20102;-77
2022/06/18 09:30:29;;;;;;;3.35;2.90;;;;;;;28.98;48.59;101613.47;5114930;28;20032;-77
2022/06/18 09:33:01;;;;;;;3.20;2.90;;;;;;;29.14;46.53;101610.41;5084117;28;20438;-77
2022/06/18 09:35:36;;;;;;;6.22;3.40;;;;;;;29.10;46.98;101614.31;5095625;28;20035;-77
2022/06/18 09:38:07;;;;;;;4.03;2.75;;;;;;;29.17;47.62;101618.16;5095863;28;20024;-77
2022/06/18 09:40:35;;;;;;;4.90;2.60;;;;;;;29.32;47.87;101608.03;5109850;28;20375;-77
2022/06/18 09:43:42;;;;;;;2.83;2.58;;;;;;;29.48;44.86;101604.09;5115414;28;20055;-77
2022/06/18 09:46:22;;;;;;;2.75;2.40;;;;;;;29.53;47.51;101601.88;5115913;28;20035;-77
2022/06/18 09:48:48;;;;;;;2.22;2.10;;;;;;;29.63;47.71;101597.44;5115688;28;20067;-77
2022/06/18 09:51:35;;;;;;;;;;;;;;;29.78;47.12;101594.44;5117000;28;20165;-77
2022/06/18 09:54:05;;;;;;;1.90;1.80;;;;;;;29.93;47.50;101586.91;5102240;28;20336;-78
2022/06/18 09:56:36;;;;;;;1.95;1.85;;;;;;;30.04;46.83;101597.56;5114951;28;20026;-78
2022/06/18 09:59:08;;;;;;;4.35;2.20;;;;;;;30.07;46.09;101593.75;5116175;28;20020;-77
2022/06/18 10:01:44;;;;;;;3.08;2.13;;;;;;;30.17;46.67;101589.34;5098297;28;20044;-78
2022/06/18 10:06:58;;;;;;;3.40;2.42;;;;;;;30.25;45.90;101589.50;5094506;28;20161;-78
2022/06/18 10:09:47;;;;;;;2.85;2.20;;;;;;;30.31;46.36;101583.59;5095479;28;20077;-78
2022/06/18 10:12:32;;;;;;;2.30;2.10;;;;;;;30.44;46.60;101582.50;5094349;28;20433;-78
2022/06/18 10:15:00;;;;;;;3.08;2.20;;;;;;;30.54;46.83;101580.72;5095140;28;20046;-78
2022/06/18 10:17:37;;;;;;;1.90;1.80;;;;;;;30.63;46.00;101585.25;5094444;28;20031;-78
2022/06/18 10:20:14;;;;;;;2.03;1.90;;;;;;;30.77;44.18;101586.72;5095144;28;20020;-78
2022/06/18 10:23:04;;;;;;;1.90;1.70;;;;;;;30.83;42.36;101581.78;5094906;28;20028;-78
2022/06/18 10:25:41;;;;;;;5.00;2.70;;;;;;;30.78;44.82;101569.66;5094824;28;20446;-78
2022/06/18 10:28:17;;;;;;;2.78;2.22;;;;;;;30.87;45.61;101572.47;5095082;28;20024;-78
2022/06/18 10:30:42;;;;;;;;;;;;;;;30.99;44.85;101575.88;5095184;28;20027;-75
2022/06/18 10:33:32;;;;;;;2.50;2.30;;;;;;;31.11;45.22;101569.38;5094142;28;19908;-76
2022/06/18 10:36:14;;;;;;;2.03;1.80;;;;;;;31.23;44.96;101568.28;5094469;28;20118;-76
2022/06/18 10:38:52;;;;;;;1.90;1.80;;;;;;;31.34;45.31;101567.31;5094081;28;20032;-76
2022/06/18 10:41:30;;;;;;;4.38;2.80;;;;;;;31.35;40.80;101560.09;5094352;28;20085;-76
2022/06/18 10:44:07;;;;;;;4.20;2.60;;;;;;;31.30;44.01;101559.69;5094336;28;20039;-77
2022/06/18 10:46:33;;;;;;;2.80;2.50;;;;;;;31.32;44.45;101555.88;5094183;28;20024;-76
2022/06/18 10:49:01;;;;;;;2.67;2.47;;;;;;;31.39;44.76;101551.59;5094234;28;20052;-77
2022/06/18 10:51:32;;;;;;;2.45;2.25;;;;;;;31.52;43.89;101540.59;5094387;28;20020;-77
2022/06/18 10:54:02;;;;;;;2.67;2.38;;;;;;;31.63;44.47;101552.13;5093455;28;20067;-77
2022/06/18 10:56:33;;;;;;;6.15;3.20;;;;;;;31.65;42.21;101545.63;5094222;28;20100;-77
2022/06/18 10:59:01;;;;;;;3.50;2.83;;;;;;;31.63;41.79;101536.88;5093942;28;20392;-77
2022/06/18 11:01:34;;;;;;;4.05;2.70;;;;;;;31.61;42.61;101536.16;5110559;28;20445;-77
2022/06/18 11:04:03;;;;;;;2.60;2.33;;;;;;;31.66;43.85;101541.09;5114521;28;20019;-77
2022/06/18 11:06:29;;;;;;;5.43;3.03;;;;;;;31.68;42.18;101536.44;5113898;28;20443;-77
2022/06/18 11:08:58;;;;;;;2.90;2.60;;;;;;;31.76;43.67;101536.56;5113203;28;20026;-77
2022/06/18 11:11:36;;;;;;;2.85;2.50;;;;;;;31.92;42.19;101537.81;5114297;28;20051;-77
2022/06/18 11:14:15;;;;;;;2.53;2.30;;;;;;;32.03;43.09;101529.56;5113753;28;20069;-77
2022/06/18 11:16:42;;;;;;;2.47;2.28;;;;;;;32.17;43.40;101526.38;5113757;28;20099;-77
2022/06/18 11:19:26;;;;;;;2.50;2.30;;;;;;;32.29;43.03;101518.16;5114180;28;20015;-77
2022/06/18 11:21:52;;;;;;;2.30;2.10;;;;;;;32.39;43.05;101512.72;5113259;28;20084;-77
2022/06/18 11:24:30;;;;;;;2.13;1.95;;;;;;;32.47;43.00;101508.28;5114145;28;20028;-77
2022/06/18 11:27:00;;;;;;;5.45;2.30;;;;;;;32.56;41.58;101501.16;5113965;28;20028;-77
2022/06/18 11:29:33;;;;;;;3.45;2.72;;;;;;;32.52;41.07;101498.94;5113329;28;20498;-77
2022/06/18 11:32:06;;;;;;;6.47;2.90;;;;;;;32.53;39.31;101496.06;5113763;28;20409;-77
2022/06/18 11:34:38;;;;;;;9.13;3.67;;;;;;;32.41;40.93;101486.56;5113392;28;20024;-77
2022/06/18 11:37:17;;;;;;;5.57;3.40;;;;;;;32.40;39.81;101480.34;5113840;28;20109;-76
2022/06/18 11:39:42;;;;;;;3.10;2.80;;;;;;;32.45;42.29;101478.03;5113791;28;20024;-78
2022/06/18 11:42:30;;;;;;;3.00;2.70;;;;;;;32.62;41.99;101473.66;5113313;28;20073;-77
2022/06/18 11:45:03;;;;;;;2.67;2.30;;;;;;;32.78;40.56;101481.03;5113178;28;20679;-77
2022/06/18 11:47:50;;;;;;;2.50;2.30;;;;;;;32.85;41.53;101475.06;5114366;28;20092;-77
2022/06/18 11:50:30;;;;;;;2.53;2.30;;;;;;;33.00;40.70;101478.88;5112941;28;20035;-77
2022/06/18 11:53:07;;;;;;;2.38;2.20;;;;;;;33.09;40.74;101469.03;5113289;28;20024;-77
2022/06/18 11:55:36;;;;;;;3.15;2.20;;;;;;;33.22;41.62;101469.47;5113525;28;20032;-77